sensor_id;sensor_type;location;lat;lon;timestamp;pressure;altitude;pressure_sealevel;temperature;humidity
61757;BME280;57225;61.460;24.060;2023-04-25T00:02:41;99228.94;;;4.31;100.00
61757;BME280;57225;61.460;24.060;2023-04-25T00:05:27;99213.19;;;4.31;100.00
61757;BME280;57225;61.460;24.060;2023-04-25T00:08:11;99219.13;;;4.33;100.00
61757;BME280;57225;61.460;24.060;2023-04-25T00:10:57;99225.38;;;4.27;100.00
61757;BME280;57225;61.460;24.060;2023-04-25T00:13:41;99213.59;;;4.30;100.00
61757;BME280;57225;61.460;24.060;2023-04-25T00:16:26;99204.50;;;4.29;100.00
61757;BME280;57225;61.460;24.060;2023-04-25T00:19:11;99209.31;;;4.43;100.00
61757;BME280;57225;61.460;24.060;2023-04-25T00:21:56;99205.38;;;4.40;100.00
61757;BME280;57225;61.460;24.060;2023-04-25T00:24:41;99201.41;;;4.34;100.00
61757;BME280;57225;61.460;24.060;2023-04-25T00:27:26;99202.97;;;4.35;100.00
61757;BME280;57225;61.460;24.060;2023-04-25T00:30:11;99206.13;;;4.34;100.00
61757;BME280;57225;61.460;24.060;2023-04-25T00:32:56;99203.72;;;4.32;100.00
61757;BME280;57225;61.460;24.060;2023-04-25T00:35:41;99204.50;;;4.29;100.00
61757;BME280;57225;61.460;24.060;2023-04-25T00:38:26;99201.34;;;4.27;100.00
61757;BME280;57225;61.460;24.060;2023-04-25T00:41:11;99195.03;;;4.23;100.00
61757;BME280;57225;61.460;24.060;2023-04-25T00:43:56;99201.75;;;4.29;100.00
61757;BME280;57225;61.460;24.060;2023-04-25T00:46:42;99192.28;;;4.27;100.00
61757;BME280;57225;61.460;24.060;2023-04-25T00:49:26;99205.19;;;4.16;100.00
61757;BME280;57225;61.460;24.060;2023-04-25T00:52:11;99193.75;;;4.10;100.00
61757;BME280;57225;61.460;24.060;2023-04-25T00:54:55;99189.03;;;4.14;100.00
61757;BME280;57225;61.460;24.060;2023-04-25T00:57:40;99190.19;;;4.13;100.00
61757;BME280;57225;61.460;24.060;2023-04-25T01:00:24;99183.09;;;4.09;100.00
61757;BME280;57225;61.460;24.060;2023-04-25T01:03:09;99192.16;;;4.09;100.00
61757;BME280;57225;61.460;24.060;2023-04-25T01:05:54;99198.78;;;4.01;100.00
61757;BME280;57225;61.460;24.060;2023-04-25T01:08:39;99178.25;;;3.95;100.00
61757;BME280;57225;61.460;24.060;2023-04-25T01:11:24;99187.75;;;4.01;100.00
61757;BME280;57225;61.460;24.060;2023-04-25T01:14:09;99184.56;;;3.95;100.00
61757;BME280;57225;61.460;24.060;2023-04-25T01:16:53;99180.94;;;3.88;100.00
61757;BME280;57225;61.460;24.060;2023-04-25T01:19:38;99183.00;;;3.98;100.00
61757;BME280;57225;61.460;24.060;2023-04-25T01:22:23;99182.19;;;3.94;100.00
61757;BME280;57225;61.460;24.060;2023-04-25T01:25:08;99184.53;;;3.92;100.00
61757;BME280;57225;61.460;24.060;2023-04-25T01:27:53;99187.31;;;3.95;100.00
61757;BME280;57225;61.460;24.060;2023-04-25T01:30:38;99192.44;;;3.97;100.00
61757;BME280;57225;61.460;24.060;2023-04-25T01:33:23;99194.03;;;3.98;100.00
61757;BME280;57225;61.460;24.060;2023-04-25T01:36:07;99192.47;;;4.00;100.00
61757;BME280;57225;61.460;24.060;2023-04-25T01:38:53;99181.81;;;3.99;100.00
61757;BME280;57225;61.460;24.060;2023-04-25T01:41:37;99182.19;;;3.94;100.00
61757;BME280;57225;61.460;24.060;2023-04-25T01:44:22;99201.06;;;3.92;100.00
61757;BME280;57225;61.460;24.060;2023-04-25T01:47:07;99184.56;;;3.95;100.00
61757;BME280;57225;61.460;24.060;2023-04-25T01:49:51;99185.66;;;3.87;100.00
61757;BME280;57225;61.460;24.060;2023-04-25T01:52:36;99180.22;;;3.94;100.00
61757;BME280;57225;61.460;24.060;2023-04-25T01:55:20;99182.09;;;3.87;100.00
61757;BME280;57225;61.460;24.060;2023-04-25T01:58:05;99176.59;;;3.87;100.00
61757;BME280;57225;61.460;24.060;2023-04-25T02:00:53;99173.50;;;3.92;100.00
61757;BME280;57225;61.460;24.060;2023-04-25T02:03:38;99180.59;;;3.93;100.00
61757;BME280;57225;61.460;24.060;2023-04-25T02:06:22;99174.25;;;3.89;100.00
61757;BME280;57225;61.460;24.060;2023-04-25T02:09:07;99172.00;;;3.98;100.00
61757;BME280;57225;61.460;24.060;2023-04-25T02:11:53;99177.09;;;3.99;100.00
61757;BME280;57225;61.460;24.060;2023-04-25T02:14:37;99166.88;;;4.00;100.00
61757;BME280;57225;61.460;24.060;2023-04-25T02:17:21;99156.19;;;3.91;100.00
61757;BME280;57225;61.460;24.060;2023-04-25T02:20:06;99151.47;;;3.95;100.00
61757;BME280;57225;61.460;24.060;2023-04-25T02:22:51;99150.69;;;3.95;100.00
61757;BME280;57225;61.460;24.060;2023-04-25T02:25:36;99142.78;;;3.90;100.00
61757;BME280;57225;61.460;24.060;2023-04-25T02:28:20;99146.75;;;3.96;100.00
61757;BME280;57225;61.460;24.060;2023-04-25T02:31:05;99157.81;;;3.99;100.00
61757;BME280;57225;61.460;24.060;2023-04-25T02:33:50;99147.63;;;4.07;100.00
61757;BME280;57225;61.460;24.060;2023-04-25T02:36:34;99154.72;;;4.08;100.00
61757;BME280;57225;61.460;24.060;2023-04-25T02:39:19;99157.91;;;4.10;100.00
61757;BME280;57225;61.460;24.060;2023-04-25T02:42:06;99150.00;;;4.12;100.00
61757;BME280;57225;61.460;24.060;2023-04-25T02:44:50;99157.47;;;4.08;100.00
61757;BME280;57225;61.460;24.060;2023-04-25T02:47:35;99140.94;;;4.08;100.00
61757;BME280;57225;61.460;24.060;2023-04-25T02:50:19;99131.06;;;4.07;100.00
61757;BME280;57225;61.460;24.060;2023-04-25T02:53:04;99139.41;;;4.14;100.00
61757;BME280;57225;61.460;24.060;2023-04-25T02:55:48;99131.13;;;4.18;100.00
61757;BME280;57225;61.460;24.060;2023-04-25T02:58:33;99126.84;;;4.20;100.00
61757;BME280;57225;61.460;24.060;2023-04-25T03:01:18;99137.09;;;4.23;100.00
61757;BME280;57225;61.460;24.060;2023-04-25T03:04:03;99131.94;;;4.18;100.00
61757;BME280;57225;61.460;24.060;2023-04-25T03:06:47;99126.47;;;4.25;100.00
61757;BME280;57225;61.460;24.060;2023-04-25T03:09:32;99126.50;;;4.29;100.00
61757;BME280;57225;61.460;24.060;2023-04-25T03:12:16;99118.66;;;4.34;100.00
61757;BME280;57225;61.460;24.060;2023-04-25T03:15:01;99117.44;;;4.32;100.00
61757;BME280;57225;61.460;24.060;2023-04-25T03:17:46;99114.31;;;4.37;100.00
61757;BME280;57225;61.460;24.060;2023-04-25T03:20:30;99113.94;;;4.35;100.00
61757;BME280;57225;61.460;24.060;2023-04-25T03:23:14;99114.72;;;4.35;100.00
61757;BME280;57225;61.460;24.060;2023-04-25T03:25:59;99109.16;;;4.32;100.00
61757;BME280;57225;61.460;24.060;2023-04-25T03:28:44;99106.00;;;4.26;100.00
61757;BME280;57225;61.460;24.060;2023-04-25T03:31:28;99111.63;;;4.48;100.00
61757;BME280;57225;61.460;24.060;2023-04-25T03:34:13;99113.19;;;4.45;100.00
61757;BME280;57225;61.460;24.060;2023-04-25T03:36:59;99114.75;;;4.42;100.00
61757;BME280;57225;61.460;24.060;2023-04-25T03:39:44;99102.19;;;4.52;100.00
61757;BME280;57225;61.460;24.060;2023-04-25T03:42:28;99089.97;;;4.57;100.00
61757;BME280;57225;61.460;24.060;2023-04-25T03:45:13;99094.28;;;4.51;100.00
61757;BME280;57225;61.460;24.060;2023-04-25T03:47:57;99089.56;;;4.48;100.00
61757;BME280;57225;61.460;24.060;2023-04-25T03:50:42;99086.41;;;4.56;100.00
61757;BME280;57225;61.460;24.060;2023-04-25T03:53:26;99088.81;;;4.65;100.00
61757;BME280;57225;61.460;24.060;2023-04-25T03:56:11;99083.28;;;4.58;100.00
61757;BME280;57225;61.460;24.060;2023-04-25T03:58:55;99077.75;;;4.58;100.00
61757;BME280;57225;61.460;24.060;2023-04-25T04:01:39;99083.28;;;4.58;100.00
61757;BME280;57225;61.460;24.060;2023-04-25T04:04:24;99071.88;;;4.59;100.00
61757;BME280;57225;61.460;24.060;2023-04-25T04:07:09;99065.13;;;4.57;100.00
61757;BME280;57225;61.460;24.060;2023-04-25T04:09:54;99058.41;;;4.51;100.00
61757;BME280;57225;61.460;24.060;2023-04-25T04:12:38;99057.63;;;4.50;100.00
61757;BME280;57225;61.460;24.060;2023-04-25T04:15:23;99054.88;;;4.47;100.00
61757;BME280;57225;61.460;24.060;2023-04-25T04:18:08;99046.97;;;4.41;100.00
61757;BME280;57225;61.460;24.060;2023-04-25T04:20:53;99032.75;;;4.39;100.00
61757;BME280;57225;61.460;24.060;2023-04-25T04:23:39;99018.63;;;4.52;100.00
61757;BME280;57225;61.460;24.060;2023-04-25T04:26:24;99017.06;;;4.58;100.00
61757;BME280;57225;61.460;24.060;2023-04-25T04:29:09;99023.00;;;4.60;100.00
61757;BME280;57225;61.460;24.060;2023-04-25T04:31:54;99023.31;;;4.44;100.00
61757;BME280;57225;61.460;24.060;2023-04-25T04:34:39;99026.88;;;4.44;100.00
61757;BME280;57225;61.460;24.060;2023-04-25T04:37:23;99009.50;;;4.33;100.00
61757;BME280;57225;61.460;24.060;2023-04-25T04:40:08;99035.94;;;4.45;100.00
61757;BME280;57225;61.460;24.060;2023-04-25T04:42:52;99022.59;;;4.54;100.00
61757;BME280;57225;61.460;24.060;2023-04-25T04:45:37;99025.69;;;4.49;100.00
61757;BME280;57225;61.460;24.060;2023-04-25T04:48:24;99035.19;;;4.52;100.00
61757;BME280;57225;61.460;24.060;2023-04-25T04:51:09;99039.91;;;4.62;100.00
61757;BME280;57225;61.460;24.060;2023-04-25T04:53:53;99045.47;;;4.69;100.00
61757;BME280;57225;61.460;24.060;2023-04-25T04:56:42;99041.94;;;4.72;100.00
61757;BME280;57225;61.460;24.060;2023-04-25T04:59:26;99039.22;;;4.79;100.00
61757;BME280;57225;61.460;24.060;2023-04-25T05:02:11;99048.66;;;4.78;100.00
61757;BME280;57225;61.460;24.060;2023-04-25T05:04:56;99051.00;;;4.76;100.00
61757;BME280;57225;61.460;24.060;2023-04-25T05:07:40;99032.88;;;4.75;100.00
61757;BME280;57225;61.460;24.060;2023-04-25T05:10:25;99035.69;;;4.85;100.00
61757;BME280;57225;61.460;24.060;2023-04-25T05:13:09;99034.47;;;4.79;100.00
61757;BME280;57225;61.460;24.060;2023-04-25T05:15:54;99029.34;;;4.78;100.00
61757;BME280;57225;61.460;24.060;2023-04-25T05:18:39;99025.81;;;4.88;100.00
61757;BME280;57225;61.460;24.060;2023-04-25T05:21:24;99036.84;;;4.88;100.00
61757;BME280;57225;61.460;24.060;2023-04-25T05:24:10;99035.28;;;4.80;100.00
61757;BME280;57225;61.460;24.060;2023-04-25T05:26:54;99024.22;;;4.80;100.00
61757;BME280;57225;61.460;24.060;2023-04-25T05:29:39;99036.44;;;4.79;100.00
61757;BME280;57225;61.460;24.060;2023-04-25T05:32:23;99043.16;;;4.85;100.00
61757;BME280;57225;61.460;24.060;2023-04-25T05:35:09;99041.19;;;4.89;100.00
61757;BME280;57225;61.460;24.060;2023-04-25T05:37:53;99032.94;;;4.93;100.00
61757;BME280;57225;61.460;24.060;2023-04-25T05:40:38;99032.91;;;4.96;100.00
61757;BME280;57225;61.460;24.060;2023-04-25T05:43:22;99028.19;;;4.97;100.00
61757;BME280;57225;61.460;24.060;2023-04-25T05:46:07;99026.59;;;4.96;100.00
61757;BME280;57225;61.460;24.060;2023-04-25T05:48:51;99030.56;;;4.98;100.00
61757;BME280;57225;61.460;24.060;2023-04-25T05:51:35;99031.75;;;4.97;100.00
61757;BME280;57225;61.460;24.060;2023-04-25T05:54:20;99025.81;;;4.92;100.00
61757;BME280;57225;61.460;24.060;2023-04-25T05:57:06;99032.53;;;5.08;100.00
61757;BME280;57225;61.460;24.060;2023-04-25T05:59:51;99037.28;;;5.15;100.00
61757;BME280;57225;61.460;24.060;2023-04-25T06:02:36;99045.19;;;5.16;100.00
61757;BME280;57225;61.460;24.060;2023-04-25T06:05:20;99027.81;;;5.05;100.00
61757;BME280;57225;61.460;24.060;2023-04-25T06:08:05;99037.25;;;4.97;100.00
61757;BME280;57225;61.460;24.060;2023-04-25T06:10:50;99025.44;;;5.07;100.00
61757;BME280;57225;61.460;24.060;2023-04-25T06:13:34;99030.16;;;5.07;100.00
61757;BME280;57225;61.460;24.060;2023-04-25T06:16:20;99032.53;;;5.08;100.00
61757;BME280;57225;61.460;24.060;2023-04-25T06:19:04;99028.22;;;5.21;100.00
61757;BME280;57225;61.460;24.060;2023-04-25T06:21:49;99031.38;;;5.31;100.00
61757;BME280;57225;61.460;24.060;2023-04-25T06:24:33;99029.81;;;5.37;100.00
61757;BME280;57225;61.460;24.060;2023-04-25T06:27:19;99033.34;;;5.30;100.00
61757;BME280;57225;61.460;24.060;2023-04-25T06:30:04;99027.44;;;5.35;100.00
61757;BME280;57225;61.460;24.060;2023-04-25T06:32:49;99021.91;;;5.28;100.00
61757;BME280;57225;61.460;24.060;2023-04-25T06:35:33;99018.75;;;5.30;100.00
61757;BME280;57225;61.460;24.060;2023-04-25T06:38:18;99021.13;;;5.28;100.00
61757;BME280;57225;61.460;24.060;2023-04-25T06:41:03;99012.44;;;5.25;100.00
61757;BME280;57225;61.460;24.060;2023-04-25T06:43:47;99014.78;;;5.38;100.00
61757;BME280;57225;61.460;24.060;2023-04-25T06:46:32;99007.69;;;5.33;100.00
61757;BME280;57225;61.460;24.060;2023-04-25T06:49:17;99014.78;;;5.45;100.00
61757;BME280;57225;61.460;24.060;2023-04-25T06:52:02;99007.69;;;5.58;100.00
61757;BME280;57225;61.460;24.060;2023-04-25T06:54:48;99010.06;;;5.42;100.00
61757;BME280;57225;61.460;24.060;2023-04-25T06:57:32;98996.25;;;5.42;100.00
61757;BME280;57225;61.460;24.060;2023-04-25T07:00:18;99001.38;;;5.47;100.00
61757;BME280;57225;61.460;24.060;2023-04-25T07:03:03;99010.84;;;5.53;100.00
61757;BME280;57225;61.460;24.060;2023-04-25T07:05:48;99012.03;;;5.52;100.00
61757;BME280;57225;61.460;24.060;2023-04-25T07:08:32;99005.31;;;5.53;100.00
61757;BME280;57225;61.460;24.060;2023-04-25T07:11:17;99009.28;;;5.48;100.00
61757;BME280;57225;61.460;24.060;2023-04-25T07:14:02;98995.84;;;5.40;100.00
61757;BME280;57225;61.460;24.060;2023-04-25T07:16:47;99002.97;;;5.48;100.00
61757;BME280;57225;61.460;24.060;2023-04-25T07:19:32;99003.72;;;5.52;100.00
61757;BME280;57225;61.460;24.060;2023-04-25T07:22:16;99001.75;;;5.63;100.00
61757;BME280;57225;61.460;24.060;2023-04-25T07:25:01;99000.53;;;5.71;100.00
61757;BME280;57225;61.460;24.060;2023-04-25T07:27:46;98995.81;;;5.72;100.00
61757;BME280;57225;61.460;24.060;2023-04-25T07:30:31;98992.66;;;5.73;100.00
61757;BME280;57225;61.460;24.060;2023-04-25T07:33:15;98990.25;;;5.82;100.00
61757;BME280;57225;61.460;24.060;2023-04-25T07:36:00;98991.84;;;5.87;100.00
61757;BME280;57225;61.460;24.060;2023-04-25T07:38:46;98989.47;;;5.99;100.00
61757;BME280;57225;61.460;24.060;2023-04-25T07:41:30;98983.47;;;6.15;100.00
61757;BME280;57225;61.460;24.060;2023-04-25T07:44:15;98982.59;;;6.36;100.00
61757;BME280;57225;61.460;24.060;2023-04-25T07:47:00;98987.75;;;6.27;100.00
61757;BME280;57225;61.460;24.060;2023-04-25T07:49:45;98984.19;;;6.37;100.00
61757;BME280;57225;61.460;24.060;2023-04-25T07:52:29;98976.28;;;6.35;100.00
61757;BME280;57225;61.460;24.060;2023-04-25T07:55:14;98976.72;;;6.20;100.00
61757;BME280;57225;61.460;24.060;2023-04-25T07:57:59;98981.41;;;6.33;100.00
61757;BME280;57225;61.460;24.060;2023-04-25T08:00:44;98980.25;;;6.27;100.00
61757;BME280;57225;61.460;24.060;2023-04-25T08:03:29;98975.06;;;6.43;100.00
61757;BME280;57225;61.460;24.060;2023-04-25T08:06:13;98980.50;;;6.61;100.00
61757;BME280;57225;61.460;24.060;2023-04-25T08:08:58;98965.38;;;6.73;100.00
61757;BME280;57225;61.460;24.060;2023-04-25T08:11:42;98968.50;;;6.78;100.00
61757;BME280;57225;61.460;24.060;2023-04-25T08:14:29;98967.78;;;6.67;100.00
61757;BME280;57225;61.460;24.060;2023-04-25T08:17:19;98965.31;;;6.83;100.00
61757;BME280;57225;61.460;24.060;2023-04-25T08:20:04;98962.84;;;6.96;100.00
61757;BME280;57225;61.460;24.060;2023-04-25T08:22:49;98959.06;;;7.24;100.00
61757;BME280;57225;61.460;24.060;2023-04-25T08:25:34;98962.97;;;7.30;100.00
61757;BME280;57225;61.460;24.060;2023-04-25T08:28:18;98964.41;;;6.97;100.00
61757;BME280;57225;61.460;24.060;2023-04-25T08:31:03;98963.50;;;7.14;100.00
61757;BME280;57225;61.460;24.060;2023-04-25T08:33:48;98961.03;;;7.23;100.00
61757;BME280;57225;61.460;24.060;2023-04-25T08:36:33;98958.03;;;7.52;100.00
61757;BME280;57225;61.460;24.060;2023-04-25T08:39:18;98958.03;;;7.52;100.00
61757;BME280;57225;61.460;24.060;2023-04-25T08:42:06;98957.59;;;7.53;100.00
61757;BME280;57225;61.460;24.060;2023-04-25T08:44:55;98948.09;;;7.54;100.00
61757;BME280;57225;61.460;24.060;2023-04-25T08:47:40;98965.25;;;7.80;100.00
61757;BME280;57225;61.460;24.060;2023-04-25T08:50:26;98956.66;;;7.71;100.00
61757;BME280;57225;61.460;24.060;2023-04-25T08:53:12;98959.63;;;7.87;100.00
61757;BME280;57225;61.460;24.060;2023-04-25T08:56:01;98953.41;;;7.76;100.00
61757;BME280;57225;61.460;24.060;2023-04-25T08:58:48;98958.13;;;7.79;100.00
61757;BME280;57225;61.460;24.060;2023-04-25T09:01:34;98952.50;;;7.86;100.00
61757;BME280;57225;61.460;24.060;2023-04-25T09:04:21;98947.84;;;8.13;100.00
61757;BME280;57225;61.460;24.060;2023-04-25T09:07:06;98959.13;;;8.33;100.00
61757;BME280;57225;61.460;24.060;2023-04-25T09:09:50;98957.34;;;8.12;100.00
61757;BME280;57225;61.460;24.060;2023-04-25T09:12:35;98960.78;;;8.23;100.00
61757;BME280;57225;61.460;24.060;2023-04-25T09:15:20;98953.84;;;8.08;100.00
61757;BME280;57225;61.460;24.060;2023-04-25T09:18:05;98948.25;;;8.12;100.00
61757;BME280;57225;61.460;24.060;2023-04-25T09:20:49;98939.66;;;8.02;100.00
61757;BME280;57225;61.460;24.060;2023-04-25T09:23:47;98929.03;;;7.94;100.00
61757;BME280;57225;61.460;24.060;2023-04-25T09:26:32;98936.31;;;8.15;100.00
61757;BME280;57225;61.460;24.060;2023-04-25T09:29:18;98932.97;;;8.30;100.00
61757;BME280;57225;61.460;24.060;2023-04-25T09:32:14;98934.13;;;8.29;100.00
61757;BME280;57225;61.460;24.060;2023-04-25T09:34:59;98935.25;;;8.39;100.00
61757;BME280;57225;61.460;24.060;2023-04-25T09:37:45;98931.50;;;8.53;100.00
61757;BME280;57225;61.460;24.060;2023-04-25T09:40:30;98932.31;;;8.50;100.00
61757;BME280;57225;61.460;24.060;2023-04-25T09:43:25;98941.38;;;8.80;100.00
61757;BME280;57225;61.460;24.060;2023-04-25T09:46:10;98941.84;;;8.75;100.00
61757;BME280;57225;61.460;24.060;2023-04-25T09:48:55;98940.88;;;8.89;100.00
61757;BME280;57225;61.460;24.060;2023-04-25T09:51:40;98941.94;;;8.95;100.00
61757;BME280;57225;61.460;24.060;2023-04-25T09:54:25;98941.84;;;9.02;100.00
61757;BME280;57225;61.460;24.060;2023-04-25T09:57:20;98955.22;;;9.34;100.00
61757;BME280;57225;61.460;24.060;2023-04-25T10:00:05;98959.25;;;9.53;100.00
61757;BME280;57225;61.460;24.060;2023-04-25T10:02:53;98943.56;;;9.62;100.00
61757;BME280;57225;61.460;24.060;2023-04-25T10:05:39;98938.66;;;9.70;100.00
61757;BME280;57225;61.460;24.060;2023-04-25T10:08:31;98919.81;;;9.58;100.00
61757;BME280;57225;61.460;24.060;2023-04-25T10:11:16;98904.97;;;9.45;100.00
61757;BME280;57225;61.460;24.060;2023-04-25T10:14:01;98887.16;;;9.19;100.00
61757;BME280;57225;61.460;24.060;2023-04-25T10:16:47;98889.72;;;9.10;100.00
61757;BME280;57225;61.460;24.060;2023-04-25T10:19:32;98866.31;;;9.07;100.00
61757;BME280;57225;61.460;24.060;2023-04-25T10:22:39;98883.09;;;8.77;100.00
61757;BME280;57225;61.460;24.060;2023-04-25T10:25:25;98894.13;;;8.84;100.00
61757;BME280;57225;61.460;24.060;2023-04-25T10:28:10;98903.09;;;8.92;100.00
61757;BME280;57225;61.460;24.060;2023-04-25T10:31:04;98900.88;;;9.06;100.00
61757;BME280;57225;61.460;24.060;2023-04-25T10:33:49;98892.00;;;9.15;100.00
61757;BME280;57225;61.460;24.060;2023-04-25T10:36:35;98904.38;;;9.34;100.00
61757;BME280;57225;61.460;24.060;2023-04-25T10:39:23;98903.97;;;9.55;100.00
61757;BME280;57225;61.460;24.060;2023-04-25T10:42:08;98909.09;;;9.80;100.00
61757;BME280;57225;61.460;24.060;2023-04-25T10:45:04;98901.44;;;10.03;100.00
61757;BME280;57225;61.460;24.060;2023-04-25T10:47:49;98896.16;;;10.29;100.00
61757;BME280;57225;61.460;24.060;2023-04-25T10:50:38;98902.41;;;10.53;100.00
61757;BME280;57225;61.460;24.060;2023-04-25T10:53:25;98897.13;;;10.91;100.00
61757;BME280;57225;61.460;24.060;2023-04-25T10:56:19;98895.38;;;11.29;100.00
61757;BME280;57225;61.460;24.060;2023-04-25T10:59:15;98892.94;;;11.76;100.00
61757;BME280;57225;61.460;24.060;2023-04-25T11:02:11;98891.84;;;12.40;100.00
61757;BME280;57225;61.460;24.060;2023-04-25T11:04:56;98899.47;;;12.78;100.00
61757;BME280;57225;61.460;24.060;2023-04-25T11:07:55;98894.66;;;12.91;100.00
61757;BME280;57225;61.460;24.060;2023-04-25T11:10:45;98905.41;;;13.05;100.00
61757;BME280;57225;61.460;24.060;2023-04-25T11:13:31;98902.97;;;13.54;100.00
61757;BME280;57225;61.460;24.060;2023-04-25T11:16:16;98900.72;;;13.84;98.24
61757;BME280;57225;61.460;24.060;2023-04-25T11:19:01;98901.06;;;14.07;97.78
61757;BME280;57225;61.460;24.060;2023-04-25T11:21:46;98907.28;;;14.55;96.18
61757;BME280;57225;61.460;24.060;2023-04-25T11:24:32;98900.06;;;15.16;90.64
61757;BME280;57225;61.460;24.060;2023-04-25T11:27:18;98898.53;;;15.42;89.32
61757;BME280;57225;61.460;24.060;2023-04-25T11:30:13;98887.50;;;15.84;86.55
61757;BME280;57225;61.460;24.060;2023-04-25T11:32:59;98893.28;;;15.62;87.09
61757;BME280;57225;61.460;24.060;2023-04-25T11:35:45;98896.41;;;15.92;86.49
61757;BME280;57225;61.460;24.060;2023-04-25T11:38:29;98888.78;;;15.74;86.22
61757;BME280;57225;61.460;24.060;2023-04-25T11:41:15;98893.53;;;16.37;85.16
61757;BME280;57225;61.460;24.060;2023-04-25T11:44:00;98891.06;;;16.81;82.45
61757;BME280;57225;61.460;24.060;2023-04-25T11:46:46;98888.66;;;16.89;81.16
61757;BME280;57225;61.460;24.060;2023-04-25T11:49:31;98894.28;;;16.98;81.39
61757;BME280;57225;61.460;24.060;2023-04-25T11:52:15;98880.31;;;17.04;79.37
61757;BME280;57225;61.460;24.060;2023-04-25T11:55:00;98883.31;;;17.00;81.88
61757;BME280;57225;61.460;24.060;2023-04-25T11:57:48;98876.66;;;17.60;78.85
61757;BME280;57225;61.460;24.060;2023-04-25T12:00:36;98886.91;;;18.11;77.61
61757;BME280;57225;61.460;24.060;2023-04-25T12:03:20;98887.03;;;18.45;73.20
61757;BME280;57225;61.460;24.060;2023-04-25T12:06:07;98882.28;;;18.66;73.88
61757;BME280;57225;61.460;24.060;2023-04-25T12:09:02;98883.53;;;19.35;71.60
61757;BME280;57225;61.460;24.060;2023-04-25T12:11:53;98883.66;;;19.61;67.68
61757;BME280;57225;61.460;24.060;2023-04-25T12:14:37;98888.00;;;19.21;69.94
61757;BME280;57225;61.460;24.060;2023-04-25T12:17:22;98890.41;;;18.94;70.04
61757;BME280;57225;61.460;24.060;2023-04-25T12:20:13;98891.50;;;18.67;71.88
61757;BME280;57225;61.460;24.060;2023-04-25T12:22:57;98874.69;;;18.58;71.13
61757;BME280;57225;61.460;24.060;2023-04-25T12:25:43;98876.81;;;18.77;70.88
61757;BME280;57225;61.460;24.060;2023-04-25T12:28:32;98865.00;;;18.94;70.81
61757;BME280;57225;61.460;24.060;2023-04-25T12:31:17;98863.09;;;19.60;68.13
61757;BME280;57225;61.460;24.060;2023-04-25T12:34:01;98859.47;;;19.80;65.54
61757;BME280;57225;61.460;24.060;2023-04-25T12:36:48;98862.28;;;20.26;64.76
61757;BME280;57225;61.460;24.060;2023-04-25T12:39:34;98860.22;;;20.27;62.54
61757;BME280;57225;61.460;24.060;2023-04-25T12:42:18;98853.47;;;20.76;61.06
61757;BME280;57225;61.460;24.060;2023-04-25T12:45:03;98859.09;;;21.13;57.61
61757;BME280;57225;61.460;24.060;2023-04-25T12:47:47;98861.88;;;21.02;57.02
61757;BME280;57225;61.460;24.060;2023-04-25T12:50:32;98860.91;;;21.10;56.80
61757;BME280;57225;61.460;24.060;2023-04-25T12:53:19;98856.69;;;20.95;56.60
61757;BME280;57225;61.460;24.060;2023-04-25T12:56:04;98851.13;;;21.11;56.96
61757;BME280;57225;61.460;24.060;2023-04-25T12:58:49;98848.59;;;21.61;55.30
61757;BME280;57225;61.460;24.060;2023-04-25T13:01:34;98853.47;;;21.61;54.63
61757;BME280;57225;61.460;24.060;2023-04-25T13:04:18;98858.97;;;21.27;54.42
61757;BME280;57225;61.460;24.060;2023-04-25T13:07:05;98852.88;;;21.46;54.12
61757;BME280;57225;61.460;24.060;2023-04-25T13:09:49;98852.22;;;21.67;53.62
61757;BME280;57225;61.460;24.060;2023-04-25T13:12:33;98856.63;;;21.74;51.59
61757;BME280;57225;61.460;24.060;2023-04-25T13:15:19;98848.31;;;21.65;51.96
61757;BME280;57225;61.460;24.060;2023-04-25T13:18:04;98851.47;;;21.78;51.60
61757;BME280;57225;61.460;24.060;2023-04-25T13:20:50;98845.78;;;21.78;51.33
61757;BME280;57225;61.460;24.060;2023-04-25T13:23:35;98839.91;;;20.85;52.49
61757;BME280;57225;61.460;24.060;2023-04-25T13:26:19;98838.38;;;20.27;54.24
61757;BME280;57225;61.460;24.060;2023-04-25T13:29:04;98836.88;;;20.06;54.82
61757;BME280;57225;61.460;24.060;2023-04-25T13:31:48;98829.31;;;19.72;56.18
61757;BME280;57225;61.460;24.060;2023-04-25T13:34:33;98828.66;;;19.82;55.59
61757;BME280;57225;61.460;24.060;2023-04-25T13:37:17;98831.22;;;20.06;54.58
61757;BME280;57225;61.460;24.060;2023-04-25T13:40:03;98810.16;;;20.33;53.79
61757;BME280;57225;61.460;24.060;2023-04-25T13:42:48;98816.53;;;20.59;52.81
61757;BME280;57225;61.460;24.060;2023-04-25T13:45:33;98821.22;;;20.36;54.26
61757;BME280;57225;61.460;24.060;2023-04-25T13:48:18;98808.69;;;20.17;54.10
61757;BME280;57225;61.460;24.060;2023-04-25T13:51:03;98804.00;;;20.34;52.76
61757;BME280;57225;61.460;24.060;2023-04-25T13:53:48;98798.59;;;20.36;53.13
61757;BME280;57225;61.460;24.060;2023-04-25T13:56:32;98796.81;;;20.39;51.49
61757;BME280;57225;61.460;24.060;2023-04-25T13:59:17;98793.28;;;19.92;52.19
61757;BME280;57225;61.460;24.060;2023-04-25T14:02:01;98786.31;;;19.21;52.63
61757;BME280;57225;61.460;24.060;2023-04-25T14:04:46;98783.66;;;18.98;54.61
61757;BME280;57225;61.460;24.060;2023-04-25T14:07:30;98794.09;;;18.71;54.40
61757;BME280;57225;61.460;24.060;2023-04-25T14:10:17;98779.47;;;18.73;54.77
61757;BME280;57225;61.460;24.060;2023-04-25T14:13:02;98789.25;;;18.92;53.83
61757;BME280;57225;61.460;24.060;2023-04-25T14:15:46;98791.44;;;18.82;53.40
61757;BME280;57225;61.460;24.060;2023-04-25T14:18:31;98790.28;;;18.74;54.39
61757;BME280;57225;61.460;24.060;2023-04-25T14:21:15;98788.47;;;18.71;54.46
61757;BME280;57225;61.460;24.060;2023-04-25T14:24:00;98789.03;;;18.75;53.87
61757;BME280;57225;61.460;24.060;2023-04-25T14:26:45;98798.44;;;19.07;51.76